Grifon 5 — UGMI — position and weather

sailwx.info

Track history (hours):
 
Tides and Currents Weather Stations Pressure Air Temp Water Temp Dewpoint Dewpoint Depression Visibility Wind Speed Wind Dir Waves Ship Positions

Grifon 5

Last reported at 2016-Jul-28 15:33 UTC. Time now 2016-Jul-28 16:30 UTC.
Position N 59°53' E 030°14'.

Length 25 m.

MMSI: 273311070.

Date/timePositionNaut miles runAvg speedWind from/ knotsBaromVisibWave heightAir tempDewpointWater temp
2016-Jul-28 15:33N 59°53' E 030°14'0 0.0
2016-Jul-28 14:33N 59°53' E 030°14'0 0.0
2016-Jul-28 13:33N 59°53' E 030°14'0 0.0
2016-Jul-28 12:32N 59°53' E 030°14'0 0.0
2016-Jul-28 11:32N 59°53' E 030°14'0 0.0
2016-Jul-28 10:33N 59°53' E 030°14'0 0.0
2016-Jul-28 09:33N 59°53' E 030°14'0 0.0
2016-Jul-28 08:33N 59°53' E 030°14'0 0.0
2016-Jul-28 07:32N 59°53' E 030°14'0 0.0
2016-Jul-28 06:32N 59°53' E 030°14'0 0.0
2016-Jul-28 05:33N 59°53' E 030°14'0 0.0
2016-Jul-28 04:34N 59°53' E 030°14'0 0.0
2016-Jul-28 03:33N 59°53' E 030°14'0 0.0
2016-Jul-28 02:33N 59°53' E 030°14'0 0.0
2016-Jul-28 01:33N 59°53' E 030°14'0 0.0
2016-Jul-28 00:33N 59°53' E 030°14'0 0.0
2016-Jul-27 23:34N 59°53' E 030°14'0 0.0
2016-Jul-27 22:33N 59°53' E 030°14'0 0.0
2016-Jul-27 21:32N 59°53' E 030°14'0 0.0
2016-Jul-27 20:33N 59°53' E 030°14'0 0.0
2016-Jul-27 19:33N 59°53' E 030°14'0 0.0
2016-Jul-27 18:32N 59°53' E 030°14'0 0.0
2016-Jul-27 17:33N 59°53' E 030°14'0 0.0
2016-Jul-27 16:33N 59°53' E 030°14'0 0.1
2016-Jul-27 15:33N 59°53' E 030°14'2 1.6
2016-Jul-27 14:33N 59°53' E 030°11'2 1.7
2016-Jul-27 13:32N 59°53' E 030°14'0 0.0
2016-Jul-27 12:33N 59°53' E 030°14'0 0.0
2016-Jul-27 11:33N 59°53' E 030°14'0 0.0
2016-Jul-27 10:32N 59°53' E 030°14'0 0.0
2016-Jul-27 09:33N 59°53' E 030°14'0 0.0
2016-Jul-27 08:33N 59°53' E 030°14'0 0.0
2016-Jul-27 07:33N 59°53' E 030°14'0 0.0
2016-Jul-27 06:33N 59°53' E 030°14'0 0.0
2016-Jul-27 05:32N 59°53' E 030°14'0 0.0
2016-Jul-27 04:32N 59°53' E 030°14'0 0.0
2016-Jul-27 03:32N 59°53' E 030°14'0 0.0
2016-Jul-27 02:32N 59°53' E 030°14'0 0.4
2016-Jul-27 01:33N 59°53' E 030°13'0 0.4
2016-Jul-27 00:33N 59°53' E 030°14'0 0.0
2016-Jul-26 23:33N 59°53' E 030°14'0 0.0
2016-Jul-26 22:33N 59°53' E 030°14'0 0.0
2016-Jul-26 21:32N 59°53' E 030°14'0 0.0
2016-Jul-26 20:33N 59°53' E 030°14'2 2.1
2016-Jul-26 19:33N 59°55' E 030°14'0 0.0
2016-Jul-26 18:33N 59°55' E 030°14'2 2.0
2016-Jul-26 17:32N 59°53' E 030°14'0 0.0
2016-Jul-26 16:32N 59°53' E 030°14'2 2.1
2016-Jul-26 15:32N 59°55' E 030°14'0 0.0
2016-Jul-26 14:32N 59°55' E 030°14'2 2.1
2016-Jul-26 13:32N 59°53' E 030°14'0 0.0
2016-Jul-26 12:32N 59°53' E 030°14'0 0.0
2016-Jul-26 11:32N 59°53' E 030°14'0 0.0
2016-Jul-26 10:32N 59°53' E 030°14'0 0.0
2016-Jul-26 09:33N 59°53' E 030°14'0 0.0
2016-Jul-26 08:33N 59°53' E 030°14'0 0.0
2016-Jul-26 07:32N 59°53' E 030°14'0 0.0
2016-Jul-26 06:34N 59°53' E 030°14'0 0.0
2016-Jul-26 05:33N 59°53' E 030°14'0 0.0
2016-Jul-26 04:33N 59°53' E 030°14'0 0.0
2016-Jul-26 03:33N 59°53' E 030°14'0 0.0
2016-Jul-26 02:30N 59°53' E 030°14'0 0.0
2016-Jul-26 01:33N 59°53' E 030°14'0 0.0
2016-Jul-26 00:34N 59°53' E 030°14'0 0.0
2016-Jul-25 23:33N 59°53' E 030°14'0 0.0
2016-Jul-25 22:33N 59°53' E 030°14'0 0.0
2016-Jul-25 21:33N 59°53' E 030°14'0 0.0
2016-Jul-25 20:33N 59°53' E 030°14'0 0.0
2016-Jul-25 19:34N 59°53' E 030°14'0 0.0
2016-Jul-25 18:33N 59°53' E 030°14'6 5.7
2016-Jul-25 17:32N 59°55' E 030°03'9 7.6
2016-Jul-25 16:19N 60°01' E 029°50'3 1.9
2016-Jul-25 14:30N 60°02' E 029°57'4 3.7
2016-Jul-25 13:33N 60°01' E 029°50'4 4.2
2016-Jul-25 12:32N 59°57' E 029°53'6 5.6
2016-Jul-25 11:32N 59°55' E 030°03'5 4.7
2016-Jul-25 10:28N 59°53' E 030°12'1 1.1
2016-Jul-25 09:33N 59°54' E 030°13'0 0.3
2016-Jul-25 08:33N 59°54' E 030°14'2 1.6
2016-Jul-25 07:32N 59°53' E 030°14'0 0.0
2016-Jul-25 06:33N 59°53' E 030°14'0 0.0
2016-Jul-25 05:29N 59°53' E 030°14'0 0.0
2016-Jul-25 04:33N 59°53' E 030°14'0 0.0
2016-Jul-25 03:32N 59°53' E 030°14'0 0.0
2016-Jul-25 02:33N 59°53' E 030°14'0 0.0
2016-Jul-25 01:33N 59°53' E 030°14'0 0.0
2016-Jul-25 00:33N 59°53' E 030°14'0 0.0
2016-Jul-24 23:32N 59°53' E 030°14'0 0.0
2016-Jul-24 22:32N 59°53' E 030°14'0 0.0
2016-Jul-24 21:33N 59°53' E 030°14'0 0.0
2016-Jul-24 20:32N 59°53' E 030°14'0 0.0
2016-Jul-24 19:32N 59°53' E 030°14'0 0.0
2016-Jul-24 18:29N 59°53' E 030°14'0 0.0
2016-Jul-24 17:32N 59°53' E 030°14'0 0.0
2016-Jul-24 16:33N 59°53' E 030°14'0 0.0
2016-Jul-24 15:32N 59°53' E 030°14'0 0.0
2016-Jul-24 14:33N 59°53' E 030°14'0 0.0
2016-Jul-24 13:33N 59°53' E 030°14'0 0.0
2016-Jul-24 12:32N 59°53' E 030°14'0 0.0
2016-Jul-24 11:32N 59°53' E 030°14'0 0.0
2016-Jul-24 10:33N 59°53' E 030°14'0 0.0
2016-Jul-24 09:32N 59°53' E 030°14'0 0.0
2016-Jul-24 08:34N 59°53' E 030°14'2 1.9
2016-Jul-24 07:33N 59°53' E 030°11'2 1.9
2016-Jul-24 06:34N 59°53' E 030°14'0 0.0
2016-Jul-24 05:33N 59°53' E 030°14'0 0.0
2016-Jul-24 04:32N 59°53' E 030°14'0 0.0
2016-Jul-24 03:33N 59°53' E 030°14'0 0.0
2016-Jul-24 02:32N 59°53' E 030°14'0 0.0
2016-Jul-24 01:32N 59°53' E 030°14'0 0.0
2016-Jul-24 00:33N 59°53' E 030°14'0 0.0
2016-Jul-23 23:32N 59°53' E 030°14'0 0.0
2016-Jul-23 22:33N 59°53' E 030°14'0 0.0
2016-Jul-23 21:32N 59°53' E 030°14'0 0.0
2016-Jul-23 20:33N 59°53' E 030°14'0 0.0
2016-Jul-23 19:33N 59°53' E 030°14'0 0.0
2016-Jul-23 18:33N 59°53' E 030°14'1 1.3
2016-Jul-23 17:33N 59°53' E 030°12'1 0.7
2016-Jul-23 16:31N 59°53' E 030°13'1 0.6
2016-Jul-23 15:32N 59°53' E 030°14'0 0.0
2016-Jul-23 14:32N 59°53' E 030°14'0 0.0
2016-Jul-23 13:33N 59°53' E 030°14'0 0.0
2016-Jul-23 12:33N 59°53' E 030°14'0 0.0
2016-Jul-23 11:33N 59°53' E 030°14'0 0.0
2016-Jul-23 10:33N 59°53' E 030°14'0 0.0
2016-Jul-23 09:33N 59°53' E 030°14'0 0.0
2016-Jul-23 08:33N 59°53' E 030°14'0 0.0
2016-Jul-23 07:33N 59°53' E 030°14'0 0.0
2016-Jul-23 06:33N 59°53' E 030°14'0 0.0
2016-Jul-23 04:33N 59°53' E 030°14'0 0.0
2016-Jul-23 03:32N 59°53' E 030°14'0 0.0
2016-Jul-23 02:33N 59°53' E 030°14'0 0.0
2016-Jul-23 01:32N 59°53' E 030°14'0 0.0
2016-Jul-23 00:33N 59°53' E 030°14'0 0.0
2016-Jul-22 23:33N 59°53' E 030°14'0 0.0
2016-Jul-22 22:33N 59°53' E 030°14'0 0.0
2016-Jul-22 21:32N 59°53' E 030°14'1 1.2
2016-Jul-22 20:33N 59°53' E 030°12'0 0.5
2016-Jul-22 19:33N 59°53' E 030°11'1 1.5
2016-Jul-22 18:33N 59°53' E 030°14'0 0.0
2016-Jul-22 17:33N 59°53' E 030°14'0 0.1
2016-Jul-22 16:31N 59°53' E 030°14'0 0.1
2016-Jul-22 15:33N 59°53' E 030°14'0 0.0
2016-Jul-22 14:32N 59°53' E 030°14'0 0.0
2016-Jul-22 13:32N 59°53' E 030°14'0 0.0
2016-Jul-22 12:32N 59°53' E 030°14'0 0.0
2016-Jul-22 11:33N 59°53' E 030°14'0 0.0
2016-Jul-22 10:33N 59°53' E 030°14'2 1.7
2016-Jul-22 09:33N 59°53' E 030°11'1 0.6
2016-Jul-22 08:33N 59°53' E 030°12'1 1.2
2016-Jul-22 07:33N 59°53' E 030°14'0 0.0
2016-Jul-22 04:31N 59°53' E 030°14'0 0.0
2016-Jul-22 03:33N 59°53' E 030°14'0 0.0
2016-Jul-22 02:32N 59°53' E 030°14'0 0.0
2016-Jul-22 01:33N 59°53' E 030°14'0 0.0
2016-Jul-22 00:33N 59°53' E 030°14'0 0.0
2016-Jul-21 23:32N 59°53' E 030°14'0 0.0
2016-Jul-21 22:32N 59°53' E 030°14'0 0.0
2016-Jul-21 21:33N 59°53' E 030°14'0 0.0
2016-Jul-21 20:34N 59°53' E 030°14'0 0.0
2016-Jul-21 19:33N 59°53' E 030°14'0 0.0
2016-Jul-21 18:32N 59°53' E 030°14'0 0.0
2016-Jul-21 17:33N 59°53' E 030°14'0 0.0
2016-Jul-21 16:33N 59°53' E 030°14'0 0.0
2016-Jul-21 15:33N 59°53' E 030°14'0 0.0
2016-Jul-21 14:33N 59°53' E 030°14'0 0.0
2016-Jul-21 13:33N 59°53' E 030°14'0 0.0
2016-Jul-21 12:32N 59°53' E 030°14'0 0.0
2016-Jul-21 11:32N 59°53' E 030°14'0 0.0
2016-Jul-21 10:33N 59°53' E 030°14'0 0.0
2016-Jul-21 09:33N 59°53' E 030°14'0 0.0
2016-Jul-21 08:33N 59°53' E 030°14'0 0.0
2016-Jul-21 07:33N 59°53' E 030°14'0 0.0
2016-Jul-21 06:33N 59°53' E 030°14'0 0.0
2016-Jul-21 05:32N 59°53' E 030°14'2 1.6
2016-Jul-21 04:33N 59°53' E 030°11'1 1.0
2016-Jul-21 03:33N 59°53' E 030°13'1 0.9
2016-Jul-21 02:33N 59°53' E 030°14'0 0.0
2016-Jul-21 01:34N 59°53' E 030°14'0 0.0
2016-Jul-21 00:33N 59°53' E 030°14'0 0.0
2016-Jul-20 23:33N 59°53' E 030°14'0 0.0
2016-Jul-20 22:33N 59°53' E 030°14'0 0.0
2016-Jul-20 21:33N 59°53' E 030°14'0 0.0
2016-Jul-20 20:32N 59°53' E 030°14'0 0.0
2016-Jul-20 19:32N 59°53' E 030°14'0 0.0
2016-Jul-20 18:33N 59°53' E 030°14'0 0.0
2016-Jul-20 17:33N 59°53' E 030°14'0 0.0
2016-Jul-20 16:29N 59°53' E 030°14'0 0.0
2016-Jul-20 15:33N 59°53' E 030°14'0 0.0
2016-Jul-20 14:33N 59°53' E 030°14'0 0.0
2016-Jul-20 13:33N 59°53' E 030°14'0 0.0
2016-Jul-20 12:33N 59°53' E 030°14'0 0.0
2016-Jul-20 11:33N 59°53' E 030°14'0 0.0
2016-Jul-20 10:33N 59°53' E 030°14'1 0.9
2016-Jul-20 09:33N 59°52' E 030°13'1 1.2
2016-Jul-20 08:32N 59°53' E 030°11'1 1.0
2016-Jul-20 07:33N 59°53' E 030°13'1 0.8
2016-Jul-20 06:32N 59°53' E 030°14'0 0.0
2016-Jul-20 05:33N 59°53' E 030°14'0 0.0
2016-Jul-20 04:33N 59°53' E 030°14'0 0.0
2016-Jul-20 03:33N 59°53' E 030°14'0 0.0
2016-Jul-20 02:33N 59°53' E 030°14'0 0.0
2016-Jul-20 01:33N 59°53' E 030°14'0 0.0
2016-Jul-20 00:33N 59°53' E 030°14'0 0.0
2016-Jul-19 23:32N 59°53' E 030°14'0 0.0
2016-Jul-19 22:33N 59°53' E 030°14'0 0.0
2016-Jul-19 21:32N 59°53' E 030°14'0 0.0
2016-Jul-19 20:33N 59°53' E 030°14'0 0.0
2016-Jul-19 19:32N 59°53' E 030°14'0 0.0
2016-Jul-19 18:33N 59°53' E 030°14'0 0.0
2016-Jul-19 17:33N 59°53' E 030°14'0 0.0
2016-Jul-19 16:33N 59°53' E 030°14'0 0.0
2016-Jul-19 15:33N 59°53' E 030°14'0 0.0
2016-Jul-19 14:33N 59°53' E 030°14'0 0.0
2016-Jul-19 13:33N 59°53' E 030°14'0 0.0
2016-Jul-19 12:32N 59°53' E 030°14'0 0.0
2016-Jul-19 11:27N 59°53' E 030°14'0 0.0
2016-Jul-19 10:31N 59°53' E 030°14'0 0.0
2016-Jul-19 09:33N 59°53' E 030°14'0 0.0
2016-Jul-19 08:33N 59°53' E 030°14'0 0.0
2016-Jul-19 07:33N 59°53' E 030°14'0 0.0
2016-Jul-19 04:32N 59°53' E 030°14'0 0.0
2016-Jul-19 03:33N 59°53' E 030°14'0 0.0
2016-Jul-19 02:33N 59°53' E 030°14'0 0.0
2016-Jul-19 01:33N 59°53' E 030°14'0 0.0
2016-Jul-19 00:32N 59°53' E 030°14'0 0.0
2016-Jul-18 23:33N 59°53' E 030°14'0 0.0
2016-Jul-18 22:32N 59°53' E 030°14'0 0.0
2016-Jul-18 21:33N 59°53' E 030°14'0 0.0
2016-Jul-18 20:33N 59°53' E 030°14'0 0.0
2016-Jul-18 19:33N 59°53' E 030°14'0 0.0
2016-Jul-18 18:33N 59°53' E 030°14'0 0.0
2016-Jul-18 17:33N 59°53' E 030°14'0 0.0
2016-Jul-18 16:32N 59°53' E 030°14'0 0.0
2016-Jul-18 15:33N 59°53' E 030°14'  
Track history (hours):
 
Tides and Currents Weather Stations Pressure Air Temp Water Temp Dewpoint Dewpoint Depression Visibility Wind Speed Wind Dir Waves Ship Positions

Grifon 5

Last reported at 2016-Jul-28 15:33 UTC. Time now 2016-Jul-28 16:30 UTC.
Position N 59°53' E 030°14'.

Length 25 m.

MMSI: 273311070.

Date/timePositionNaut miles runAvg speedWind from/ knotsBaromVisibWave heightAir tempDewpointWater temp
2016-Jul-28 15:33N 59°53' E 030°14'0 0.0
2016-Jul-28 14:33N 59°53' E 030°14'0 0.0
2016-Jul-28 13:33N 59°53' E 030°14'0 0.0
2016-Jul-28 12:32N 59°53' E 030°14'0 0.0
2016-Jul-28 11:32N 59°53' E 030°14'0 0.0
2016-Jul-28 10:33N 59°53' E 030°14'0 0.0
2016-Jul-28 09:33N 59°53' E 030°14'0 0.0
2016-Jul-28 08:33N 59°53' E 030°14'0 0.0
2016-Jul-28 07:32N 59°53' E 030°14'0 0.0
2016-Jul-28 06:32N 59°53' E 030°14'0 0.0
2016-Jul-28 05:33N 59°53' E 030°14'0 0.0
2016-Jul-28 04:34N 59°53' E 030°14'0 0.0
2016-Jul-28 03:33N 59°53' E 030°14'0 0.0
2016-Jul-28 02:33N 59°53' E 030°14'0 0.0
2016-Jul-28 01:33N 59°53' E 030°14'0 0.0
2016-Jul-28 00:33N 59°53' E 030°14'0 0.0
2016-Jul-27 23:34N 59°53' E 030°14'0 0.0
2016-Jul-27 22:33N 59°53' E 030°14'0 0.0
2016-Jul-27 21:32N 59°53' E 030°14'0 0.0
2016-Jul-27 20:33N 59°53' E 030°14'0 0.0
2016-Jul-27 19:33N 59°53' E 030°14'0 0.0
2016-Jul-27 18:32N 59°53' E 030°14'0 0.0
2016-Jul-27 17:33N 59°53' E 030°14'0 0.0
2016-Jul-27 16:33N 59°53' E 030°14'0 0.1
2016-Jul-27 15:33N 59°53' E 030°14'2 1.6
2016-Jul-27 14:33N 59°53' E 030°11'2 1.7
2016-Jul-27 13:32N 59°53' E 030°14'0 0.0
2016-Jul-27 12:33N 59°53' E 030°14'0 0.0
2016-Jul-27 11:33N 59°53' E 030°14'0 0.0
2016-Jul-27 10:32N 59°53' E 030°14'0 0.0
2016-Jul-27 09:33N 59°53' E 030°14'0 0.0
2016-Jul-27 08:33N 59°53' E 030°14'0 0.0
2016-Jul-27 07:33N 59°53' E 030°14'0 0.0
2016-Jul-27 06:33N 59°53' E 030°14'0 0.0
2016-Jul-27 05:32N 59°53' E 030°14'0 0.0
2016-Jul-27 04:32N 59°53' E 030°14'0 0.0
2016-Jul-27 03:32N 59°53' E 030°14'0 0.0
2016-Jul-27 02:32N 59°53' E 030°14'0 0.4
2016-Jul-27 01:33N 59°53' E 030°13'0 0.4
2016-Jul-27 00:33N 59°53' E 030°14'0 0.0
2016-Jul-26 23:33N 59°53' E 030°14'0 0.0
2016-Jul-26 22:33N 59°53' E 030°14'0 0.0
2016-Jul-26 21:32N 59°53' E 030°14'0 0.0
2016-Jul-26 20:33N 59°53' E 030°14'2 2.1
2016-Jul-26 19:33N 59°55' E 030°14'0 0.0
2016-Jul-26 18:33N 59°55' E 030°14'2 2.0
2016-Jul-26 17:32N 59°53' E 030°14'0 0.0
2016-Jul-26 16:32N 59°53' E 030°14'2 2.1
2016-Jul-26 15:32N 59°55' E 030°14'0 0.0
2016-Jul-26 14:32N 59°55' E 030°14'2 2.1
2016-Jul-26 13:32N 59°53' E 030°14'0 0.0
2016-Jul-26 12:32N 59°53' E 030°14'0 0.0
2016-Jul-26 11:32N 59°53' E 030°14'0 0.0
2016-Jul-26 10:32N 59°53' E 030°14'0 0.0
2016-Jul-26 09:33N 59°53' E 030°14'0 0.0
2016-Jul-26 08:33N 59°53' E 030°14'0 0.0
2016-Jul-26 07:32N 59°53' E 030°14'0 0.0
2016-Jul-26 06:34N 59°53' E 030°14'0 0.0
2016-Jul-26 05:33N 59°53' E 030°14'0 0.0
2016-Jul-26 04:33N 59°53' E 030°14'0 0.0
2016-Jul-26 03:33N 59°53' E 030°14'0 0.0
2016-Jul-26 02:30N 59°53' E 030°14'0 0.0
2016-Jul-26 01:33N 59°53' E 030°14'0 0.0
2016-Jul-26 00:34N 59°53' E 030°14'0 0.0
2016-Jul-25 23:33N 59°53' E 030°14'0 0.0
2016-Jul-25 22:33N 59°53' E 030°14'0 0.0
2016-Jul-25 21:33N 59°53' E 030°14'0 0.0
2016-Jul-25 20:33N 59°53' E 030°14'0 0.0
2016-Jul-25 19:34N 59°53' E 030°14'0 0.0
2016-Jul-25 18:33N 59°53' E 030°14'6 5.7
2016-Jul-25 17:32N 59°55' E 030°03'9 7.6
2016-Jul-25 16:19N 60°01' E 029°50'3 1.9
2016-Jul-25 14:30N 60°02' E 029°57'4 3.7
2016-Jul-25 13:33N 60°01' E 029°50'4 4.2
2016-Jul-25 12:32N 59°57' E 029°53'6 5.6
2016-Jul-25 11:32N 59°55' E 030°03'5 4.7
2016-Jul-25 10:28N 59°53' E 030°12'1 1.1
2016-Jul-25 09:33N 59°54' E 030°13'0 0.3
2016-Jul-25 08:33N 59°54' E 030°14'2 1.6
2016-Jul-25 07:32N 59°53' E 030°14'0 0.0
2016-Jul-25 06:33N 59°53' E 030°14'0 0.0
2016-Jul-25 05:29N 59°53' E 030°14'0 0.0
2016-Jul-25 04:33N 59°53' E 030°14'0 0.0
2016-Jul-25 03:32N 59°53' E 030°14'0 0.0
2016-Jul-25 02:33N 59°53' E 030°14'0 0.0
2016-Jul-25 01:33N 59°53' E 030°14'0 0.0
2016-Jul-25 00:33N 59°53' E 030°14'0 0.0
2016-Jul-24 23:32N 59°53' E 030°14'0 0.0
2016-Jul-24 22:32N 59°53' E 030°14'0 0.0
2016-Jul-24 21:33N 59°53' E 030°14'0 0.0
2016-Jul-24 20:32N 59°53' E 030°14'0 0.0
2016-Jul-24 19:32N 59°53' E 030°14'0 0.0
2016-Jul-24 18:29N 59°53' E 030°14'0 0.0
2016-Jul-24 17:32N 59°53' E 030°14'0 0.0
2016-Jul-24 16:33N 59°53' E 030°14'0 0.0
2016-Jul-24 15:32N 59°53' E 030°14'0 0.0
2016-Jul-24 14:33N 59°53' E 030°14'0 0.0
2016-Jul-24 13:33N 59°53' E 030°14'0 0.0
2016-Jul-24 12:32N 59°53' E 030°14'0 0.0
2016-Jul-24 11:32N 59°53' E 030°14'0 0.0
2016-Jul-24 10:33N 59°53' E 030°14'0 0.0
2016-Jul-24 09:32N 59°53' E 030°14'0 0.0
2016-Jul-24 08:34N 59°53' E 030°14'2 1.9
2016-Jul-24 07:33N 59°53' E 030°11'2 1.9
2016-Jul-24 06:34N 59°53' E 030°14'0 0.0
2016-Jul-24 05:33N 59°53' E 030°14'0 0.0
2016-Jul-24 04:32N 59°53' E 030°14'0 0.0
2016-Jul-24 03:33N 59°53' E 030°14'0 0.0
2016-Jul-24 02:32N 59°53' E 030°14'0 0.0
2016-Jul-24 01:32N 59°53' E 030°14'0 0.0
2016-Jul-24 00:33N 59°53' E 030°14'0 0.0
2016-Jul-23 23:32N 59°53' E 030°14'0 0.0
2016-Jul-23 22:33N 59°53' E 030°14'0 0.0
2016-Jul-23 21:32N 59°53' E 030°14'0 0.0
2016-Jul-23 20:33N 59°53' E 030°14'0 0.0
2016-Jul-23 19:33N 59°53' E 030°14'0 0.0
2016-Jul-23 18:33N 59°53' E 030°14'1 1.3
2016-Jul-23 17:33N 59°53' E 030°12'1 0.7
2016-Jul-23 16:31N 59°53' E 030°13'1 0.6
2016-Jul-23 15:32N 59°53' E 030°14'0 0.0
2016-Jul-23 14:32N 59°53' E 030°14'0 0.0
2016-Jul-23 13:33N 59°53' E 030°14'0 0.0
2016-Jul-23 12:33N 59°53' E 030°14'0 0.0
2016-Jul-23 11:33N 59°53' E 030°14'0 0.0
2016-Jul-23 10:33N 59°53' E 030°14'0 0.0
2016-Jul-23 09:33N 59°53' E 030°14'0 0.0
2016-Jul-23 08:33N 59°53' E 030°14'0 0.0
2016-Jul-23 07:33N 59°53' E 030°14'0 0.0
2016-Jul-23 06:33N 59°53' E 030°14'0 0.0
2016-Jul-23 04:33N 59°53' E 030°14'0 0.0
2016-Jul-23 03:32N 59°53' E 030°14'0 0.0
2016-Jul-23 02:33N 59°53' E 030°14'0 0.0
2016-Jul-23 01:32N 59°53' E 030°14'0 0.0
2016-Jul-23 00:33N 59°53' E 030°14'0 0.0
2016-Jul-22 23:33N 59°53' E 030°14'0 0.0
2016-Jul-22 22:33N 59°53' E 030°14'0 0.0
2016-Jul-22 21:32N 59°53' E 030°14'1 1.2
2016-Jul-22 20:33N 59°53' E 030°12'0 0.5
2016-Jul-22 19:33N 59°53' E 030°11'1 1.5
2016-Jul-22 18:33N 59°53' E 030°14'0 0.0
2016-Jul-22 17:33N 59°53' E 030°14'0 0.1
2016-Jul-22 16:31N 59°53' E 030°14'0 0.1
2016-Jul-22 15:33N 59°53' E 030°14'0 0.0
2016-Jul-22 14:32N 59°53' E 030°14'0 0.0
2016-Jul-22 13:32N 59°53' E 030°14'0 0.0
2016-Jul-22 12:32N 59°53' E 030°14'0 0.0
2016-Jul-22 11:33N 59°53' E 030°14'0 0.0
2016-Jul-22 10:33N 59°53' E 030°14'2 1.7
2016-Jul-22 09:33N 59°53' E 030°11'1 0.6
2016-Jul-22 08:33N 59°53' E 030°12'1 1.2
2016-Jul-22 07:33N 59°53' E 030°14'0 0.0
2016-Jul-22 04:31N 59°53' E 030°14'0 0.0
2016-Jul-22 03:33N 59°53' E 030°14'0 0.0
2016-Jul-22 02:32N 59°53' E 030°14'0 0.0
2016-Jul-22 01:33N 59°53' E 030°14'0 0.0
2016-Jul-22 00:33N 59°53' E 030°14'0 0.0
2016-Jul-21 23:32N 59°53' E 030°14'0 0.0
2016-Jul-21 22:32N 59°53' E 030°14'0 0.0
2016-Jul-21 21:33N 59°53' E 030°14'0 0.0
2016-Jul-21 20:34N 59°53' E 030°14'0 0.0
2016-Jul-21 19:33N 59°53' E 030°14'0 0.0
2016-Jul-21 18:32N 59°53' E 030°14'0 0.0
2016-Jul-21 17:33N 59°53' E 030°14'0 0.0
2016-Jul-21 16:33N 59°53' E 030°14'0 0.0
2016-Jul-21 15:33N 59°53' E 030°14'0 0.0
2016-Jul-21 14:33N 59°53' E 030°14'0 0.0
2016-Jul-21 13:33N 59°53' E 030°14'0 0.0
2016-Jul-21 12:32N 59°53' E 030°14'0 0.0
2016-Jul-21 11:32N 59°53' E 030°14'0 0.0
2016-Jul-21 10:33N 59°53' E 030°14'0 0.0
2016-Jul-21 09:33N 59°53' E 030°14'0 0.0
2016-Jul-21 08:33N 59°53' E 030°14'0 0.0
2016-Jul-21 07:33N 59°53' E 030°14'0 0.0
2016-Jul-21 06:33N 59°53' E 030°14'0 0.0
2016-Jul-21 05:32N 59°53' E 030°14'2 1.6
2016-Jul-21 04:33N 59°53' E 030°11'1 1.0
2016-Jul-21 03:33N 59°53' E 030°13'1 0.9
2016-Jul-21 02:33N 59°53' E 030°14'0 0.0
2016-Jul-21 01:34N 59°53' E 030°14'0 0.0
2016-Jul-21 00:33N 59°53' E 030°14'0 0.0
2016-Jul-20 23:33N 59°53' E 030°14'0 0.0
2016-Jul-20 22:33N 59°53' E 030°14'0 0.0
2016-Jul-20 21:33N 59°53' E 030°14'0 0.0
2016-Jul-20 20:32N 59°53' E 030°14'0 0.0
2016-Jul-20 19:32N 59°53' E 030°14'0 0.0
2016-Jul-20 18:33N 59°53' E 030°14'0 0.0
2016-Jul-20 17:33N 59°53' E 030°14'0 0.0
2016-Jul-20 16:29N 59°53' E 030°14'0 0.0
2016-Jul-20 15:33N 59°53' E 030°14'0 0.0
2016-Jul-20 14:33N 59°53' E 030°14'0 0.0
2016-Jul-20 13:33N 59°53' E 030°14'0 0.0
2016-Jul-20 12:33N 59°53' E 030°14'0 0.0
2016-Jul-20 11:33N 59°53' E 030°14'0 0.0
2016-Jul-20 10:33N 59°53' E 030°14'1 0.9
2016-Jul-20 09:33N 59°52' E 030°13'1 1.2
2016-Jul-20 08:32N 59°53' E 030°11'1 1.0
2016-Jul-20 07:33N 59°53' E 030°13'1 0.8
2016-Jul-20 06:32N 59°53' E 030°14'0 0.0
2016-Jul-20 05:33N 59°53' E 030°14'0 0.0
2016-Jul-20 04:33N 59°53' E 030°14'0 0.0
2016-Jul-20 03:33N 59°53' E 030°14'0 0.0
2016-Jul-20 02:33N 59°53' E 030°14'0 0.0
2016-Jul-20 01:33N 59°53' E 030°14'0 0.0
2016-Jul-20 00:33N 59°53' E 030°14'0 0.0
2016-Jul-19 23:32N 59°53' E 030°14'0 0.0
2016-Jul-19 22:33N 59°53' E 030°14'0 0.0
2016-Jul-19 21:32N 59°53' E 030°14'0 0.0
2016-Jul-19 20:33N 59°53' E 030°14'0 0.0
2016-Jul-19 19:32N 59°53' E 030°14'0 0.0
2016-Jul-19 18:33N 59°53' E 030°14'0 0.0
2016-Jul-19 17:33N 59°53' E 030°14'0 0.0
2016-Jul-19 16:33N 59°53' E 030°14'0 0.0
2016-Jul-19 15:33N 59°53' E 030°14'0 0.0
2016-Jul-19 14:33N 59°53' E 030°14'0 0.0
2016-Jul-19 13:33N 59°53' E 030°14'0 0.0
2016-Jul-19 12:32N 59°53' E 030°14'0 0.0
2016-Jul-19 11:27N 59°53' E 030°14'0 0.0
2016-Jul-19 10:31N 59°53' E 030°14'0 0.0
2016-Jul-19 09:33N 59°53' E 030°14'0 0.0
2016-Jul-19 08:33N 59°53' E 030°14'0 0.0
2016-Jul-19 07:33N 59°53' E 030°14'0 0.0
2016-Jul-19 04:32N 59°53' E 030°14'0 0.0
2016-Jul-19 03:33N 59°53' E 030°14'0 0.0
2016-Jul-19 02:33N 59°53' E 030°14'0 0.0
2016-Jul-19 01:33N 59°53' E 030°14'0 0.0
2016-Jul-19 00:32N 59°53' E 030°14'0 0.0
2016-Jul-18 23:33N 59°53' E 030°14'0 0.0
2016-Jul-18 22:32N 59°53' E 030°14'0 0.0
2016-Jul-18 21:33N 59°53' E 030°14'0 0.0
2016-Jul-18 20:33N 59°53' E 030°14'0 0.0
2016-Jul-18 19:33N 59°53' E 030°14'0 0.0
2016-Jul-18 18:33N 59°53' E 030°14'0 0.0
2016-Jul-18 17:33N 59°53' E 030°14'0 0.0
2016-Jul-18 16:32N 59°53' E 030°14'0 0.0
2016-Jul-18 15:33N 59°53' E 030°14'  

Dump ship's entire track history